Ookala, HI (96774)

12:40 PM HST on February 10, 2016 (GMT -1000)
Laupahoehoe | | Change Station
CLOSE
Current Station
Personal Weather Station
Location: Laupāhoehoe, HI
Elevation: 925 ft
Nearby Weather Stations
Active Advisory: High Surf Advisory

Elev 925 ft 19.98 °N, 155.24 °W | Updated 14 seconds ago

Haze
Haze
73.0 °F
Feels Like 74 °F
N
2.9
Wind Variable Wind from NE
Gusts 5.0 mph

Today
High -- | Low -- °F
--% Chance of Precip.
Yesterday
High -- | Low -- °F
Precip. -- in
Pressure 30.06 in
Visibility 10.0 miles
Clouds Few 3800 ft
Heat Index 74 °F
Dew Point 65 °F
Humidity 76%
Rainfall 0.00 in
Snow Depth Not available.
6:53 AM 6:17 PM
Waxing Crescent, 7% visible
METAR PHTO 102153Z 04009KT 10SM HZ FEW038 27/17 A3006 RMK AO2 SLP178 HZ SW-NW T02720172
Pressure 30.06 in
Visibility 10.0 miles
Clouds Few 3800 ft
Heat Index 74 °F
Dew Point 65 °F
Humidity 76%
Rainfall 0.00 in
Snow Depth Not available.
6:53 AM 6:17 PM
Waxing Crescent, 7% visible
METAR PHTO 102153Z 04009KT 10SM HZ FEW038 27/17 A3006 RMK AO2 SLP178 HZ SW-NW T02720172

10-Day Weather Forecast

Almanac

Astronomy

Feb. 10, 2016 Rise Set
Actual Time
Civil Twilight
Nautical Twilight
Astronomical Twilight
Moon
Length of Visible Light
Length of Day
Tomorrow will be .
, % of the Moon is Illuminated

Today's Extremes

State Highs State Lows

Community

WunderPhotos

Upload Photos

1,891,944 photos uploaded!

WunderBlog® & News

Nearby

Air Quality

  Air Quality AQ Index Pollutant
Not available.

Snow Depth

Station Depth Elevation

Earthquake Activity

City Distance Mag. Time & Date
Minimum magnitude displayed is 2.5.

Coastal Water Temperatures

Place Temperature

Stations

Nearby Weather Stations

Station Location Temp. Windchill Dew Point Humidity Wind Precip. Elev Updated Type
                   

Watches & Warnings

High Surf Advisory
Issued: 6:36 AM HST Feb. 10, 2016 – National Weather Service

... High surf advisory remains in effect from noon today to 6 PM
HST Thursday...

* surf... along north facing shores... building to 12 to 16 ft by
this evening.

* Timing... from noon HST today through Thursday afternoon.

* Impacts... moderate... expect strong breaking waves... shore
break... and strong longshore and rip currents making swimming
difficult and dangerous.

Precautionary/preparedness actions...

Beachgoers... swimmers... and surfers should heed all advice given
by ocean safety officials and exercise caution. Know your
limits... when in doubt... do not go out.



Birchard